sensor_id;sensor_type;location;lat;lon;timestamp;P1;durP1;ratioP1;P2;durP2;ratioP2
13327;SDS011;6733;51.044;3.746;2022-09-09T00:06:29;4.97;;;2.80;;
13327;SDS011;6733;51.044;3.746;2022-09-09T00:11:39;8.07;;;3.20;;
13327;SDS011;6733;51.044;3.746;2022-09-09T00:14:15;5.60;;;2.73;;
13327;SDS011;6733;51.044;3.746;2022-09-09T00:16:46;6.33;;;2.27;;
13327;SDS011;6733;51.044;3.746;2022-09-09T00:22:13;5.47;;;2.57;;
13327;SDS011;6733;51.044;3.746;2022-09-09T00:24:49;6.60;;;3.00;;
13327;SDS011;6733;51.044;3.746;2022-09-09T00:27:21;6.27;;;2.33;;
13327;SDS011;6733;51.044;3.746;2022-09-09T00:30:00;5.10;;;2.07;;
13327;SDS011;6733;51.044;3.746;2022-09-09T00:32:39;5.50;;;2.67;;
13327;SDS011;6733;51.044;3.746;2022-09-09T00:37:35;4.97;;;2.37;;
13327;SDS011;6733;51.044;3.746;2022-09-09T00:40:05;6.90;;;2.60;;
13327;SDS011;6733;51.044;3.746;2022-09-09T00:42:52;3.40;;;2.17;;
13327;SDS011;6733;51.044;3.746;2022-09-09T00:47:58;3.17;;;2.23;;
13327;SDS011;6733;51.044;3.746;2022-09-09T00:51:14;9.17;;;2.90;;
13327;SDS011;6733;51.044;3.746;2022-09-09T00:56:12;6.40;;;2.60;;
13327;SDS011;6733;51.044;3.746;2022-09-09T00:58:43;5.63;;;2.67;;
13327;SDS011;6733;51.044;3.746;2022-09-09T01:01:27;5.77;;;2.50;;
13327;SDS011;6733;51.044;3.746;2022-09-09T01:03:54;7.57;;;2.50;;
13327;SDS011;6733;51.044;3.746;2022-09-09T01:06:27;5.47;;;2.50;;
13327;SDS011;6733;51.044;3.746;2022-09-09T01:12:14;5.33;;;2.40;;
13327;SDS011;6733;51.044;3.746;2022-09-09T01:14:45;5.00;;;2.63;;
13327;SDS011;6733;51.044;3.746;2022-09-09T01:17:23;6.43;;;2.60;;
13327;SDS011;6733;51.044;3.746;2022-09-09T01:22:26;5.43;;;2.27;;
13327;SDS011;6733;51.044;3.746;2022-09-09T01:27:27;5.67;;;2.80;;
13327;SDS011;6733;51.044;3.746;2022-09-09T01:29:53;3.43;;;2.23;;
13327;SDS011;6733;51.044;3.746;2022-09-09T01:32:42;7.23;;;2.63;;
13327;SDS011;6733;51.044;3.746;2022-09-09T01:38:04;4.80;;;2.60;;
13327;SDS011;6733;51.044;3.746;2022-09-09T01:40:31;5.80;;;2.70;;
13327;SDS011;6733;51.044;3.746;2022-09-09T01:42:58;4.23;;;2.57;;
13327;SDS011;6733;51.044;3.746;2022-09-09T01:45:24;6.03;;;2.40;;
13327;SDS011;6733;51.044;3.746;2022-09-09T01:47:52;7.67;;;2.83;;
13327;SDS011;6733;51.044;3.746;2022-09-09T01:50:18;6.30;;;2.70;;
13327;SDS011;6733;51.044;3.746;2022-09-09T01:52:46;5.30;;;2.20;;
13327;SDS011;6733;51.044;3.746;2022-09-09T01:55:15;4.90;;;2.47;;
13327;SDS011;6733;51.044;3.746;2022-09-09T01:57:49;5.43;;;2.50;;
13327;SDS011;6733;51.044;3.746;2022-09-09T02:00:24;5.73;;;2.60;;
13327;SDS011;6733;51.044;3.746;2022-09-09T02:05:42;5.67;;;2.90;;
13327;SDS011;6733;51.044;3.746;2022-09-09T02:08:20;7.53;;;2.70;;
13327;SDS011;6733;51.044;3.746;2022-09-09T02:11:09;9.63;;;2.40;;
13327;SDS011;6733;51.044;3.746;2022-09-09T02:13:39;5.63;;;2.70;;
13327;SDS011;6733;51.044;3.746;2022-09-09T02:16:21;7.23;;;2.70;;
13327;SDS011;6733;51.044;3.746;2022-09-09T02:18:54;3.80;;;2.40;;
13327;SDS011;6733;51.044;3.746;2022-09-09T02:21:22;7.10;;;2.70;;
13327;SDS011;6733;51.044;3.746;2022-09-09T02:23:49;7.97;;;2.70;;
13327;SDS011;6733;51.044;3.746;2022-09-09T02:26:17;7.50;;;3.47;;
13327;SDS011;6733;51.044;3.746;2022-09-09T02:28:48;8.43;;;2.70;;
13327;SDS011;6733;51.044;3.746;2022-09-09T02:31:16;5.20;;;3.20;;
13327;SDS011;6733;51.044;3.746;2022-09-09T02:33:51;8.33;;;2.50;;
13327;SDS011;6733;51.044;3.746;2022-09-09T02:36:36;5.63;;;2.63;;
13327;SDS011;6733;51.044;3.746;2022-09-09T02:39:05;5.87;;;2.40;;
13327;SDS011;6733;51.044;3.746;2022-09-09T02:41:35;8.50;;;2.90;;
13327;SDS011;6733;51.044;3.746;2022-09-09T02:44:05;5.93;;;2.43;;
13327;SDS011;6733;51.044;3.746;2022-09-09T02:49:37;5.57;;;2.60;;
13327;SDS011;6733;51.044;3.746;2022-09-09T02:52:13;5.63;;;2.77;;
13327;SDS011;6733;51.044;3.746;2022-09-09T02:54:44;6.83;;;3.47;;
13327;SDS011;6733;51.044;3.746;2022-09-09T02:57:16;8.63;;;2.30;;
13327;SDS011;6733;51.044;3.746;2022-09-09T02:59:46;8.53;;;3.10;;
13327;SDS011;6733;51.044;3.746;2022-09-09T03:02:13;8.87;;;2.77;;
13327;SDS011;6733;51.044;3.746;2022-09-09T03:04:40;5.00;;;2.53;;
13327;SDS011;6733;51.044;3.746;2022-09-09T03:07:09;7.90;;;3.07;;
13327;SDS011;6733;51.044;3.746;2022-09-09T03:09:36;7.23;;;2.40;;
13327;SDS011;6733;51.044;3.746;2022-09-09T03:12:02;10.00;;;3.10;;
13327;SDS011;6733;51.044;3.746;2022-09-09T03:14:29;8.80;;;2.87;;
13327;SDS011;6733;51.044;3.746;2022-09-09T03:16:56;8.73;;;3.03;;
13327;SDS011;6733;51.044;3.746;2022-09-09T03:19:26;10.07;;;3.17;;
13327;SDS011;6733;51.044;3.746;2022-09-09T03:21:53;13.63;;;3.40;;
13327;SDS011;6733;51.044;3.746;2022-09-09T03:24:19;10.77;;;3.10;;
13327;SDS011;6733;51.044;3.746;2022-09-09T03:26:46;10.37;;;3.00;;
13327;SDS011;6733;51.044;3.746;2022-09-09T03:29:12;10.73;;;3.37;;
13327;SDS011;6733;51.044;3.746;2022-09-09T03:31:40;10.10;;;2.93;;
13327;SDS011;6733;51.044;3.746;2022-09-09T03:34:06;9.70;;;2.90;;
13327;SDS011;6733;51.044;3.746;2022-09-09T03:36:33;11.90;;;3.17;;
13327;SDS011;6733;51.044;3.746;2022-09-09T03:38:59;8.37;;;3.20;;
13327;SDS011;6733;51.044;3.746;2022-09-09T03:41:28;13.40;;;3.23;;
13327;SDS011;6733;51.044;3.746;2022-09-09T03:43:55;9.43;;;3.00;;
13327;SDS011;6733;51.044;3.746;2022-09-09T03:46:22;8.17;;;3.20;;
13327;SDS011;6733;51.044;3.746;2022-09-09T03:48:49;4.80;;;2.50;;
13327;SDS011;6733;51.044;3.746;2022-09-09T03:51:18;7.37;;;3.07;;
13327;SDS011;6733;51.044;3.746;2022-09-09T03:53:44;10.40;;;3.43;;
13327;SDS011;6733;51.044;3.746;2022-09-09T03:56:10;7.97;;;3.40;;
13327;SDS011;6733;51.044;3.746;2022-09-09T03:58:37;8.93;;;3.30;;
13327;SDS011;6733;51.044;3.746;2022-09-09T04:01:07;6.17;;;2.77;;
13327;SDS011;6733;51.044;3.746;2022-09-09T04:03:35;9.20;;;3.13;;
13327;SDS011;6733;51.044;3.746;2022-09-09T04:06:02;11.27;;;3.43;;
13327;SDS011;6733;51.044;3.746;2022-09-09T04:08:30;9.30;;;3.73;;
13327;SDS011;6733;51.044;3.746;2022-09-09T04:11:01;10.10;;;3.40;;
13327;SDS011;6733;51.044;3.746;2022-09-09T04:13:30;10.03;;;3.27;;
13327;SDS011;6733;51.044;3.746;2022-09-09T04:15:57;8.00;;;3.43;;
13327;SDS011;6733;51.044;3.746;2022-09-09T04:18:25;10.00;;;3.43;;
13327;SDS011;6733;51.044;3.746;2022-09-09T04:20:53;7.97;;;2.77;;
13327;SDS011;6733;51.044;3.746;2022-09-09T04:23:21;6.60;;;3.00;;
13327;SDS011;6733;51.044;3.746;2022-09-09T04:25:50;6.50;;;2.80;;
13327;SDS011;6733;51.044;3.746;2022-09-09T04:28:18;8.40;;;2.80;;
13327;SDS011;6733;51.044;3.746;2022-09-09T04:30:45;7.67;;;3.30;;
13327;SDS011;6733;51.044;3.746;2022-09-09T04:33:12;7.03;;;3.03;;
13327;SDS011;6733;51.044;3.746;2022-09-09T04:35:39;14.50;;;3.77;;
13327;SDS011;6733;51.044;3.746;2022-09-09T04:38:11;10.87;;;4.07;;
13327;SDS011;6733;51.044;3.746;2022-09-09T04:40:37;13.53;;;3.57;;
13327;SDS011;6733;51.044;3.746;2022-09-09T04:43:06;8.47;;;2.90;;
13327;SDS011;6733;51.044;3.746;2022-09-09T04:45:32;8.03;;;3.40;;
13327;SDS011;6733;51.044;3.746;2022-09-09T04:47:59;7.27;;;2.90;;
13327;SDS011;6733;51.044;3.746;2022-09-09T04:50:25;9.90;;;3.03;;
13327;SDS011;6733;51.044;3.746;2022-09-09T04:52:51;9.87;;;3.13;;
13327;SDS011;6733;51.044;3.746;2022-09-09T04:55:17;6.60;;;3.13;;
13327;SDS011;6733;51.044;3.746;2022-09-09T04:57:44;9.23;;;3.87;;
13327;SDS011;6733;51.044;3.746;2022-09-09T05:00:10;9.30;;;2.77;;
13327;SDS011;6733;51.044;3.746;2022-09-09T05:02:40;12.30;;;3.37;;
13327;SDS011;6733;51.044;3.746;2022-09-09T05:05:08;7.50;;;3.13;;
13327;SDS011;6733;51.044;3.746;2022-09-09T05:07:34;9.37;;;3.50;;
13327;SDS011;6733;51.044;3.746;2022-09-09T05:10:00;13.97;;;3.73;;
13327;SDS011;6733;51.044;3.746;2022-09-09T05:12:26;6.73;;;3.63;;
13327;SDS011;6733;51.044;3.746;2022-09-09T05:14:53;8.97;;;3.53;;
13327;SDS011;6733;51.044;3.746;2022-09-09T05:17:19;11.90;;;4.67;;
13327;SDS011;6733;51.044;3.746;2022-09-09T05:19:45;11.83;;;3.60;;
13327;SDS011;6733;51.044;3.746;2022-09-09T05:22:11;13.83;;;4.13;;
13327;SDS011;6733;51.044;3.746;2022-09-09T05:24:37;8.77;;;3.60;;
13327;SDS011;6733;51.044;3.746;2022-09-09T05:27:04;11.37;;;3.67;;
13327;SDS011;6733;51.044;3.746;2022-09-09T05:29:31;10.30;;;3.40;;
13327;SDS011;6733;51.044;3.746;2022-09-09T05:32:01;8.63;;;3.33;;
13327;SDS011;6733;51.044;3.746;2022-09-09T05:34:27;8.57;;;3.30;;
13327;SDS011;6733;51.044;3.746;2022-09-09T05:36:53;10.60;;;3.47;;
13327;SDS011;6733;51.044;3.746;2022-09-09T05:39:19;8.83;;;3.30;;
13327;SDS011;6733;51.044;3.746;2022-09-09T05:41:45;9.63;;;3.77;;
13327;SDS011;6733;51.044;3.746;2022-09-09T05:44:12;7.27;;;2.90;;
13327;SDS011;6733;51.044;3.746;2022-09-09T05:46:38;7.50;;;3.20;;
13327;SDS011;6733;51.044;3.746;2022-09-09T05:49:05;11.03;;;3.60;;
13327;SDS011;6733;51.044;3.746;2022-09-09T05:51:31;8.90;;;3.50;;
13327;SDS011;6733;51.044;3.746;2022-09-09T05:53:58;8.47;;;3.40;;
13327;SDS011;6733;51.044;3.746;2022-09-09T05:56:25;10.87;;;3.70;;
13327;SDS011;6733;51.044;3.746;2022-09-09T05:58:53;12.50;;;3.67;;
13327;SDS011;6733;51.044;3.746;2022-09-09T06:01:21;11.40;;;3.20;;
13327;SDS011;6733;51.044;3.746;2022-09-09T06:03:50;8.33;;;3.83;;
13327;SDS011;6733;51.044;3.746;2022-09-09T06:06:18;12.80;;;3.87;;
13327;SDS011;6733;51.044;3.746;2022-09-09T06:08:46;9.23;;;3.23;;
13327;SDS011;6733;51.044;3.746;2022-09-09T06:11:16;8.33;;;3.60;;
13327;SDS011;6733;51.044;3.746;2022-09-09T06:13:44;15.30;;;4.47;;
13327;SDS011;6733;51.044;3.746;2022-09-09T06:16:12;9.00;;;3.10;;
13327;SDS011;6733;51.044;3.746;2022-09-09T06:18:40;8.60;;;3.13;;
13327;SDS011;6733;51.044;3.746;2022-09-09T06:21:18;8.40;;;3.40;;
13327;SDS011;6733;51.044;3.746;2022-09-09T06:23:46;10.13;;;3.40;;
13327;SDS011;6733;51.044;3.746;2022-09-09T06:26:14;10.67;;;3.43;;
13327;SDS011;6733;51.044;3.746;2022-09-09T06:28:48;10.93;;;3.87;;
13327;SDS011;6733;51.044;3.746;2022-09-09T06:31:17;8.10;;;3.60;;
13327;SDS011;6733;51.044;3.746;2022-09-09T06:33:48;10.30;;;3.90;;
13327;SDS011;6733;51.044;3.746;2022-09-09T06:36:18;9.60;;;3.97;;
13327;SDS011;6733;51.044;3.746;2022-09-09T06:38:46;12.93;;;4.50;;
13327;SDS011;6733;51.044;3.746;2022-09-09T06:41:14;9.43;;;3.50;;
13327;SDS011;6733;51.044;3.746;2022-09-09T06:43:42;9.53;;;4.33;;
13327;SDS011;6733;51.044;3.746;2022-09-09T06:46:09;12.00;;;3.90;;
13327;SDS011;6733;51.044;3.746;2022-09-09T06:48:38;13.23;;;4.13;;
13327;SDS011;6733;51.044;3.746;2022-09-09T06:51:09;13.07;;;3.77;;
13327;SDS011;6733;51.044;3.746;2022-09-09T06:53:44;7.10;;;3.60;;
13327;SDS011;6733;51.044;3.746;2022-09-09T06:56:22;10.40;;;3.83;;
13327;SDS011;6733;51.044;3.746;2022-09-09T06:58:54;13.90;;;4.00;;
13327;SDS011;6733;51.044;3.746;2022-09-09T07:01:23;8.37;;;3.20;;
13327;SDS011;6733;51.044;3.746;2022-09-09T07:03:51;9.90;;;3.53;;
13327;SDS011;6733;51.044;3.746;2022-09-09T07:06:20;10.03;;;3.67;;
13327;SDS011;6733;51.044;3.746;2022-09-09T07:08:53;7.83;;;3.43;;
13327;SDS011;6733;51.044;3.746;2022-09-09T07:11:21;11.57;;;3.60;;
13327;SDS011;6733;51.044;3.746;2022-09-09T07:13:49;9.27;;;3.23;;
13327;SDS011;6733;51.044;3.746;2022-09-09T07:16:16;11.27;;;3.27;;
13327;SDS011;6733;51.044;3.746;2022-09-09T07:18:43;8.77;;;3.87;;
13327;SDS011;6733;51.044;3.746;2022-09-09T07:21:11;8.80;;;3.53;;
13327;SDS011;6733;51.044;3.746;2022-09-09T07:23:38;7.60;;;3.37;;
13327;SDS011;6733;51.044;3.746;2022-09-09T07:26:15;18.10;;;5.00;;
13327;SDS011;6733;51.044;3.746;2022-09-09T07:28:44;31.93;;;7.17;;
13327;SDS011;6733;51.044;3.746;2022-09-09T07:31:18;13.80;;;3.97;;
13327;SDS011;6733;51.044;3.746;2022-09-09T07:33:47;7.40;;;2.73;;
13327;SDS011;6733;51.044;3.746;2022-09-09T07:36:15;7.23;;;3.10;;
13327;SDS011;6733;51.044;3.746;2022-09-09T07:38:44;8.33;;;3.30;;
13327;SDS011;6733;51.044;3.746;2022-09-09T07:41:13;5.73;;;2.93;;
13327;SDS011;6733;51.044;3.746;2022-09-09T07:43:43;7.33;;;2.87;;
13327;SDS011;6733;51.044;3.746;2022-09-09T07:46:11;11.70;;;3.83;;
13327;SDS011;6733;51.044;3.746;2022-09-09T07:48:43;9.67;;;3.10;;
13327;SDS011;6733;51.044;3.746;2022-09-09T07:51:17;8.27;;;2.87;;
13327;SDS011;6733;51.044;3.746;2022-09-09T07:53:52;6.10;;;2.47;;
13327;SDS011;6733;51.044;3.746;2022-09-09T07:56:20;8.40;;;3.50;;
13327;SDS011;6733;51.044;3.746;2022-09-09T07:58:49;6.57;;;3.40;;
13327;SDS011;6733;51.044;3.746;2022-09-09T08:01:51;8.60;;;3.63;;
13327;SDS011;6733;51.044;3.746;2022-09-09T08:04:15;12.00;;;3.80;;
13327;SDS011;6733;51.044;3.746;2022-09-09T08:06:46;7.33;;;2.70;;
13327;SDS011;6733;51.044;3.746;2022-09-09T08:09:14;9.87;;;3.60;;
13327;SDS011;6733;51.044;3.746;2022-09-09T08:11:41;8.80;;;3.57;;
13327;SDS011;6733;51.044;3.746;2022-09-09T08:14:09;6.83;;;2.83;;
13327;SDS011;6733;51.044;3.746;2022-09-09T08:16:37;8.43;;;3.50;;
13327;SDS011;6733;51.044;3.746;2022-09-09T08:19:05;14.20;;;3.53;;
13327;SDS011;6733;51.044;3.746;2022-09-09T08:21:33;8.23;;;3.10;;
13327;SDS011;6733;51.044;3.746;2022-09-09T08:24:02;8.40;;;3.17;;
13327;SDS011;6733;51.044;3.746;2022-09-09T08:26:31;5.53;;;2.93;;
13327;SDS011;6733;51.044;3.746;2022-09-09T08:28:59;8.40;;;3.20;;
13327;SDS011;6733;51.044;3.746;2022-09-09T08:31:28;8.50;;;3.00;;
13327;SDS011;6733;51.044;3.746;2022-09-09T08:33:57;8.83;;;3.00;;
13327;SDS011;6733;51.044;3.746;2022-09-09T08:36:29;7.20;;;2.93;;
13327;SDS011;6733;51.044;3.746;2022-09-09T08:38:58;5.90;;;2.53;;
13327;SDS011;6733;51.044;3.746;2022-09-09T08:41:38;6.67;;;2.77;;
13327;SDS011;6733;51.044;3.746;2022-09-09T08:53:04;6.53;;;2.37;;
13327;SDS011;6733;51.044;3.746;2022-09-09T08:55:53;6.70;;;2.60;;
13327;SDS011;6733;51.044;3.746;2022-09-09T08:58:21;5.47;;;2.77;;
13327;SDS011;6733;51.044;3.746;2022-09-09T09:03:42;8.37;;;2.33;;
13327;SDS011;6733;51.044;3.746;2022-09-09T09:09:02;6.60;;;2.63;;
13327;SDS011;6733;51.044;3.746;2022-09-09T09:11:40;9.07;;;3.00;;
13327;SDS011;6733;51.044;3.746;2022-09-09T09:19:40;5.00;;;2.40;;
13327;SDS011;6733;51.044;3.746;2022-09-09T09:22:21;6.50;;;2.63;;
13327;SDS011;6733;51.044;3.746;2022-09-09T09:25:02;6.33;;;2.73;;
13327;SDS011;6733;51.044;3.746;2022-09-09T09:27:43;4.77;;;2.23;;
13327;SDS011;6733;51.044;3.746;2022-09-09T09:30:29;5.90;;;3.00;;
13327;SDS011;6733;51.044;3.746;2022-09-09T09:33:04;4.80;;;2.30;;
13327;SDS011;6733;51.044;3.746;2022-09-09T09:35:41;8.10;;;2.43;;
13327;SDS011;6733;51.044;3.746;2022-09-09T09:38:20;5.37;;;2.50;;
13327;SDS011;6733;51.044;3.746;2022-09-09T09:40:49;6.63;;;2.90;;
13327;SDS011;6733;51.044;3.746;2022-09-09T09:43:24;5.37;;;2.37;;
13327;SDS011;6733;51.044;3.746;2022-09-09T09:45:58;4.57;;;2.30;;
13327;SDS011;6733;51.044;3.746;2022-09-09T09:48:26;6.77;;;2.27;;
13327;SDS011;6733;51.044;3.746;2022-09-09T09:53:30;6.63;;;2.40;;
13327;SDS011;6733;51.044;3.746;2022-09-09T09:55:59;7.67;;;2.73;;
13327;SDS011;6733;51.044;3.746;2022-09-09T09:58:29;6.30;;;2.27;;
13327;SDS011;6733;51.044;3.746;2022-09-09T10:00:59;6.10;;;2.27;;
13327;SDS011;6733;51.044;3.746;2022-09-09T10:03:27;4.47;;;2.00;;
13327;SDS011;6733;51.044;3.746;2022-09-09T10:05:55;4.60;;;2.40;;
13327;SDS011;6733;51.044;3.746;2022-09-09T10:08:23;10.80;;;3.43;;
13327;SDS011;6733;51.044;3.746;2022-09-09T10:11:15;5.07;;;2.20;;
13327;SDS011;6733;51.044;3.746;2022-09-09T10:16:54;5.53;;;2.50;;
13327;SDS011;6733;51.044;3.746;2022-09-09T10:19:46;3.97;;;1.80;;
13327;SDS011;6733;51.044;3.746;2022-09-09T10:33:12;3.53;;;2.07;;
13327;SDS011;6733;51.044;3.746;2022-09-09T10:36:01;4.43;;;2.17;;
13327;SDS011;6733;51.044;3.746;2022-09-09T10:38:47;4.67;;;2.10;;
13327;SDS011;6733;51.044;3.746;2022-09-09T11:00:20;4.80;;;2.30;;
13327;SDS011;6733;51.044;3.746;2022-09-09T11:03:01;3.63;;;2.10;;
13327;SDS011;6733;51.044;3.746;2022-09-09T11:05:38;6.67;;;2.80;;
13327;SDS011;6733;51.044;3.746;2022-09-09T11:08:10;4.17;;;1.87;;
13327;SDS011;6733;51.044;3.746;2022-09-09T11:13:23;6.43;;;2.30;;
13327;SDS011;6733;51.044;3.746;2022-09-09T11:16:19;4.53;;;1.90;;
13327;SDS011;6733;51.044;3.746;2022-09-09T11:18:58;5.80;;;2.00;;
13327;SDS011;6733;51.044;3.746;2022-09-09T11:21:30;2.80;;;1.90;;
13327;SDS011;6733;51.044;3.746;2022-09-09T11:24:03;3.43;;;1.90;;
13327;SDS011;6733;51.044;3.746;2022-09-09T11:26:39;4.40;;;2.37;;
13327;SDS011;6733;51.044;3.746;2022-09-09T11:34:56;3.47;;;1.90;;
13327;SDS011;6733;51.044;3.746;2022-09-09T11:37:49;2.63;;;1.70;;
13327;SDS011;6733;51.044;3.746;2022-09-09T11:40:38;2.90;;;1.70;;
13327;SDS011;6733;51.044;3.746;2022-09-09T11:43:17;4.40;;;1.70;;
13327;SDS011;6733;51.044;3.746;2022-09-09T11:45:52;4.57;;;1.80;;
13327;SDS011;6733;51.044;3.746;2022-09-09T11:51:12;3.83;;;1.97;;
13327;SDS011;6733;51.044;3.746;2022-09-09T11:54:01;3.40;;;1.50;;
13327;SDS011;6733;51.044;3.746;2022-09-09T11:56:46;4.10;;;1.83;;
13327;SDS011;6733;51.044;3.746;2022-09-09T11:59:32;6.17;;;2.00;;
13327;SDS011;6733;51.044;3.746;2022-09-09T12:04:48;3.73;;;1.83;;
13327;SDS011;6733;51.044;3.746;2022-09-09T12:07:23;6.77;;;1.90;;
13327;SDS011;6733;51.044;3.746;2022-09-09T12:10:52;4.60;;;2.10;;
13327;SDS011;6733;51.044;3.746;2022-09-09T12:12:55;3.13;;;1.70;;
13327;SDS011;6733;51.044;3.746;2022-09-09T12:15:46;4.17;;;1.87;;
13327;SDS011;6733;51.044;3.746;2022-09-09T12:18:25;2.60;;;1.80;;
13327;SDS011;6733;51.044;3.746;2022-09-09T12:23:40;5.73;;;2.00;;
13327;SDS011;6733;51.044;3.746;2022-09-09T12:31:24;3.53;;;1.90;;
13327;SDS011;6733;51.044;3.746;2022-09-09T12:34:11;5.33;;;2.10;;
13327;SDS011;6733;51.044;3.746;2022-09-09T12:37:02;4.80;;;2.23;;
13327;SDS011;6733;51.044;3.746;2022-09-09T12:39:45;3.10;;;2.00;;
13327;SDS011;6733;51.044;3.746;2022-09-09T12:42:22;4.97;;;2.17;;
13327;SDS011;6733;51.044;3.746;2022-09-09T12:47:45;3.10;;;2.37;;
13327;SDS011;6733;51.044;3.746;2022-09-09T12:50:16;4.37;;;2.27;;
13327;SDS011;6733;51.044;3.746;2022-09-09T12:52:46;2.60;;;1.70;;
13327;SDS011;6733;51.044;3.746;2022-09-09T12:55:20;4.20;;;1.93;;
13327;SDS011;6733;51.044;3.746;2022-09-09T12:57:50;2.60;;;1.70;;
13327;SDS011;6733;51.044;3.746;2022-09-09T13:00:18;3.43;;;1.90;;
13327;SDS011;6733;51.044;3.746;2022-09-09T13:02:51;3.53;;;2.00;;
13327;SDS011;6733;51.044;3.746;2022-09-09T13:05:21;3.80;;;2.10;;
13327;SDS011;6733;51.044;3.746;2022-09-09T13:08:05;3.80;;;2.10;;
13327;SDS011;6733;51.044;3.746;2022-09-09T13:10:39;2.30;;;1.90;;
13327;SDS011;6733;51.044;3.746;2022-09-09T13:13:19;3.80;;;1.80;;
13327;SDS011;6733;51.044;3.746;2022-09-09T13:15:54;3.50;;;2.20;;
13327;SDS011;6733;51.044;3.746;2022-09-09T13:18:23;3.90;;;2.33;;
13327;SDS011;6733;51.044;3.746;2022-09-09T13:20:55;5.53;;;2.30;;
13327;SDS011;6733;51.044;3.746;2022-09-09T13:23:25;3.33;;;2.00;;
13327;SDS011;6733;51.044;3.746;2022-09-09T13:25:55;6.47;;;1.80;;
13327;SDS011;6733;51.044;3.746;2022-09-09T13:28:27;2.30;;;1.93;;
13327;SDS011;6733;51.044;3.746;2022-09-09T13:31:01;3.90;;;1.90;;
13327;SDS011;6733;51.044;3.746;2022-09-09T13:33:37;4.97;;;2.30;;
13327;SDS011;6733;51.044;3.746;2022-09-09T13:38:33;3.60;;;1.80;;
13327;SDS011;6733;51.044;3.746;2022-09-09T13:41:19;6.20;;;1.90;;
13327;SDS011;6733;51.044;3.746;2022-09-09T13:43:49;4.70;;;1.93;;
13327;SDS011;6733;51.044;3.746;2022-09-09T13:51:36;2.37;;;1.70;;
13327;SDS011;6733;51.044;3.746;2022-09-09T13:54:06;3.73;;;1.67;;
13327;SDS011;6733;51.044;3.746;2022-09-09T13:56:36;4.37;;;1.87;;
13327;SDS011;6733;51.044;3.746;2022-09-09T13:59:04;6.80;;;1.90;;
13327;SDS011;6733;51.044;3.746;2022-09-09T14:01:34;2.40;;;1.73;;
13327;SDS011;6733;51.044;3.746;2022-09-09T14:04:01;3.13;;;1.50;;
13327;SDS011;6733;51.044;3.746;2022-09-09T14:06:27;3.40;;;1.90;;
13327;SDS011;6733;51.044;3.746;2022-09-09T14:08:54;3.80;;;1.73;;
13327;SDS011;6733;51.044;3.746;2022-09-09T14:11:21;6.67;;;1.70;;
13327;SDS011;6733;51.044;3.746;2022-09-09T14:13:47;4.63;;;1.93;;
13327;SDS011;6733;51.044;3.746;2022-09-09T14:16:16;5.67;;;2.07;;
13327;SDS011;6733;51.044;3.746;2022-09-09T14:18:43;4.23;;;1.90;;
13327;SDS011;6733;51.044;3.746;2022-09-09T14:21:10;2.80;;;1.80;;
13327;SDS011;6733;51.044;3.746;2022-09-09T14:23:37;3.30;;;2.00;;
13327;SDS011;6733;51.044;3.746;2022-09-09T14:26:06;4.60;;;2.00;;
13327;SDS011;6733;51.044;3.746;2022-09-09T14:28:33;4.73;;;1.77;;
13327;SDS011;6733;51.044;3.746;2022-09-09T14:31:01;3.63;;;2.00;;
13327;SDS011;6733;51.044;3.746;2022-09-09T14:33:28;5.33;;;1.93;;
13327;SDS011;6733;51.044;3.746;2022-09-09T14:35:57;2.70;;;1.60;;
13327;SDS011;6733;51.044;3.746;2022-09-09T14:38:25;4.13;;;1.57;;
13327;SDS011;6733;51.044;3.746;2022-09-09T14:40:55;5.18;;;1.60;;
13327;SDS011;6733;51.044;3.746;2022-09-09T14:43:22;4.70;;;2.10;;
13327;SDS011;6733;51.044;3.746;2022-09-09T14:45:48;2.53;;;1.50;;
13327;SDS011;6733;51.044;3.746;2022-09-09T14:48:14;3.20;;;1.60;;
13327;SDS011;6733;51.044;3.746;2022-09-09T14:50:40;3.33;;;1.50;;
13327;SDS011;6733;51.044;3.746;2022-09-09T14:53:07;2.17;;;1.95;;
13327;SDS011;6733;51.044;3.746;2022-09-09T14:55:34;4.28;;;1.80;;
13327;SDS011;6733;51.044;3.746;2022-09-09T14:58:01;7.07;;;2.08;;
13327;SDS011;6733;51.044;3.746;2022-09-09T15:00:27;3.58;;;1.75;;
13327;SDS011;6733;51.044;3.746;2022-09-09T15:02:53;2.67;;;1.50;;
13327;SDS011;6733;51.044;3.746;2022-09-09T15:05:20;4.63;;;1.65;;
13327;SDS011;6733;51.044;3.746;2022-09-09T15:07:47;3.25;;;1.70;;
13327;SDS011;6733;51.044;3.746;2022-09-09T15:10:16;4.07;;;1.60;;
13327;SDS011;6733;51.044;3.746;2022-09-09T15:12:45;3.88;;;1.70;;
13327;SDS011;6733;51.044;3.746;2022-09-09T15:15:11;4.37;;;1.80;;
13327;SDS011;6733;51.044;3.746;2022-09-09T15:17:38;3.80;;;1.70;;
13327;SDS011;6733;51.044;3.746;2022-09-09T15:20:04;4.00;;;1.80;;
13327;SDS011;6733;51.044;3.746;2022-09-09T15:22:33;2.17;;;1.70;;
13327;SDS011;6733;51.044;3.746;2022-09-09T15:25:01;4.47;;;1.90;;
13327;SDS011;6733;51.044;3.746;2022-09-09T15:27:28;3.87;;;1.77;;
13327;SDS011;6733;51.044;3.746;2022-09-09T15:29:55;4.30;;;1.60;;
13327;SDS011;6733;51.044;3.746;2022-09-09T15:32:23;2.60;;;1.60;;
13327;SDS011;6733;51.044;3.746;2022-09-09T15:34:49;2.97;;;1.60;;
13327;SDS011;6733;51.044;3.746;2022-09-09T15:37:16;3.67;;;1.70;;
13327;SDS011;6733;51.044;3.746;2022-09-09T15:39:42;2.27;;;1.70;;
13327;SDS011;6733;51.044;3.746;2022-09-09T15:42:09;3.23;;;1.80;;
13327;SDS011;6733;51.044;3.746;2022-09-09T15:44:39;3.30;;;2.00;;
13327;SDS011;6733;51.044;3.746;2022-09-09T15:47:07;2.00;;;1.70;;
13327;SDS011;6733;51.044;3.746;2022-09-09T15:49:37;5.27;;;2.00;;
13327;SDS011;6733;51.044;3.746;2022-09-09T15:52:04;3.07;;;1.90;;
13327;SDS011;6733;51.044;3.746;2022-09-09T15:54:31;3.00;;;1.63;;
13327;SDS011;6733;51.044;3.746;2022-09-09T15:56:59;4.50;;;1.70;;
13327;SDS011;6733;51.044;3.746;2022-09-09T15:59:28;6.87;;;2.23;;
13327;SDS011;6733;51.044;3.746;2022-09-09T16:01:56;3.30;;;1.80;;
13327;SDS011;6733;51.044;3.746;2022-09-09T16:04:25;2.80;;;1.77;;
13327;SDS011;6733;51.044;3.746;2022-09-09T16:06:52;3.70;;;1.90;;
13327;SDS011;6733;51.044;3.746;2022-09-09T16:09:20;6.20;;;2.10;;
13327;SDS011;6733;51.044;3.746;2022-09-09T16:11:47;5.40;;;2.20;;
13327;SDS011;6733;51.044;3.746;2022-09-09T16:14:14;4.00;;;1.90;;
13327;SDS011;6733;51.044;3.746;2022-09-09T16:16:41;3.67;;;1.90;;
13327;SDS011;6733;51.044;3.746;2022-09-09T16:19:08;3.83;;;2.10;;
13327;SDS011;6733;51.044;3.746;2022-09-09T16:21:44;4.30;;;2.13;;
13327;SDS011;6733;51.044;3.746;2022-09-09T16:24:13;2.83;;;1.80;;
13327;SDS011;6733;51.044;3.746;2022-09-09T16:26:43;5.20;;;2.37;;
13327;SDS011;6733;51.044;3.746;2022-09-09T16:29:11;4.50;;;2.27;;
13327;SDS011;6733;51.044;3.746;2022-09-09T16:31:38;4.27;;;2.10;;
13327;SDS011;6733;51.044;3.746;2022-09-09T16:34:06;4.17;;;2.57;;
13327;SDS011;6733;51.044;3.746;2022-09-09T16:36:33;3.87;;;2.40;;
13327;SDS011;6733;51.044;3.746;2022-09-09T16:39:03;4.67;;;2.70;;
13327;SDS011;6733;51.044;3.746;2022-09-09T16:41:30;3.73;;;2.23;;
13327;SDS011;6733;51.044;3.746;2022-09-09T16:43:58;3.67;;;2.00;;
13327;SDS011;6733;51.044;3.746;2022-09-09T16:46:26;5.97;;;2.50;;
13327;SDS011;6733;51.044;3.746;2022-09-09T16:48:55;3.73;;;2.27;;
13327;SDS011;6733;51.044;3.746;2022-09-09T16:51:25;4.33;;;2.20;;
13327;SDS011;6733;51.044;3.746;2022-09-09T16:53:59;7.07;;;2.60;;
13327;SDS011;6733;51.044;3.746;2022-09-09T16:56:28;2.67;;;2.10;;
13327;SDS011;6733;51.044;3.746;2022-09-09T16:58:56;5.60;;;2.53;;
13327;SDS011;6733;51.044;3.746;2022-09-09T17:01:24;3.47;;;2.60;;
13327;SDS011;6733;51.044;3.746;2022-09-09T17:03:53;4.53;;;2.90;;
13327;SDS011;6733;51.044;3.746;2022-09-09T17:06:19;4.80;;;2.43;;
13327;SDS011;6733;51.044;3.746;2022-09-09T17:08:46;4.90;;;2.43;;
13327;SDS011;6733;51.044;3.746;2022-09-09T17:11:14;5.40;;;2.40;;
13327;SDS011;6733;51.044;3.746;2022-09-09T17:13:44;5.27;;;2.70;;
13327;SDS011;6733;51.044;3.746;2022-09-09T17:16:12;3.60;;;2.90;;
13327;SDS011;6733;51.044;3.746;2022-09-09T17:18:40;6.03;;;3.43;;
13327;SDS011;6733;51.044;3.746;2022-09-09T17:21:12;7.50;;;3.00;;
13327;SDS011;6733;51.044;3.746;2022-09-09T17:23:39;4.67;;;2.70;;
13327;SDS011;6733;51.044;3.746;2022-09-09T17:26:07;4.57;;;2.90;;